Terminal Aerodrome Forecast
Issued by NWS

Home | Current Version | Previous Version | Text Only | Print | Product List | Glossary On
Versions: 1 2 3 4 5 6 7 8 9 10 11 12 13 14 15
788
FTUS41 KCAR 282033 AAA
TAFHUL
TAF AMD
KHUL 282033Z 2821/2918 35012G20KT P6SM BKN050
     FM290100 34006KT P6SM FEW250=

USA.gov is the U.S. government's official web portal to all federal, state and local government web resources and services.